Time;durP1;ratioP1;P1;durP2;ratioP2;P2;SDS_P1;SDS_P2;PMS_P1;PMS_P2;Temp;Humidity;BMP_temperature;BMP_pressure;BME280_temperature;BME280_humidity;BME280_pressure;Samples;Min_cycle;Max_cycle;Signal;HPM_P1;HPM_P2
2022/10/04 00:01:57;;;;;;;13.45;5.50;;;8.90;84.10;;;;;;5032801;28;20048;-78
2022/10/04 00:04:39;;;;;;;8.77;4.53;;;8.80;84.90;;;;;;5032613;28;20032;-79
2022/10/04 00:07:10;;;;;;;12.98;5.25;;;8.90;84.50;;;;;;5016301;28;20029;-79
2022/10/04 00:09:53;;;;;;;14.77;5.38;;;8.80;84.30;;;;;;5016058;28;20108;-78
2022/10/04 00:12:24;;;;;;;11.68;5.15;;;8.80;84.40;;;;;;5016290;28;20029;-79
2022/10/04 00:14:55;;;;;;;12.82;4.82;;;8.80;84.30;;;;;;5031712;28;20512;-79
2022/10/04 00:17:34;;;;;;;13.27;5.22;;;8.80;84.10;;;;;;5032761;28;20026;-78
2022/10/04 00:20:03;;;;;;;13.95;5.05;;;8.80;84.00;;;;;;5032425;28;20116;-78
2022/10/04 00:22:30;;;;;;;6.70;4.45;;;8.70;84.20;;;;;;5032434;28;20045;-78
2022/10/04 00:25:12;;;;;;;14.88;4.95;;;8.70;84.30;;;;;;5032158;28;20034;-78
2022/10/04 00:27:39;;;;;;;11.98;4.80;;;8.70;84.30;;;;;;5016205;28;20425;-78
2022/10/04 00:30:05;;;;;;;10.18;4.90;;;8.60;84.50;;;;;;5032341;28;20025;-78
2022/10/04 00:32:40;;;;;;;17.20;5.25;;;8.60;84.60;;;;;;5015641;28;20092;-78
2022/10/04 00:35:24;;;;;;;11.18;4.95;;;8.60;84.60;;;;;;5016035;28;20029;-78
2022/10/04 00:38:02;;;;;;;10.18;5.10;;;8.50;84.80;;;;;;5015756;28;20083;-78
2022/10/04 00:40:33;;;;;;;8.73;4.53;;;8.50;84.80;;;;;;5015689;28;20079;-78
2022/10/04 00:43:07;;;;;;;9.52;4.25;;;8.50;85.10;;;;;;5015643;28;20037;-78
2022/10/04 00:45:40;;;;;;;7.20;3.92;;;8.40;85.10;;;;;;5032034;28;20213;-78
2022/10/04 00:48:26;;;;;;;10.80;4.75;;;8.40;85.20;;;;;;5032076;28;20648;-77
2022/10/04 00:51:15;;;;;;;8.75;4.65;;;8.40;85.10;;;;;;5032077;28;20025;-77
2022/10/04 00:54:10;;;;;;;12.93;4.18;;;8.40;84.90;;;;;;4996657;28;20056;-77
2022/10/04 00:56:47;;;;;;;8.70;4.47;;;8.40;84.90;;;;;;5015636;28;20033;-78
2022/10/04 00:59:37;;;;;;;9.50;3.70;;;8.40;85.10;;;;;;5031915;28;20029;-77
2022/10/04 01:02:20;;;;;;;9.32;4.07;;;8.40;84.80;;;;;;5015519;28;20032;-78
2022/10/04 01:05:01;;;;;;;11.88;4.88;;;8.40;84.60;;;;;;5030842;28;20477;-77
2022/10/04 01:07:49;;;;;;;6.72;4.43;;;8.40;84.30;;;;;;5031752;28;20120;-77
2022/10/04 01:10:29;;;;;;;7.43;4.28;;;8.40;84.50;;;;;;5032113;28;20504;-77
2022/10/04 01:12:55;;;;;;;10.10;3.70;;;8.30;84.30;;;;;;5015069;28;20120;-78
2022/10/04 01:15:24;;;;;;;10.68;4.38;;;8.30;84.20;;;;;;5015014;28;20141;-78
2022/10/04 01:18:08;;;;;;;11.88;4.32;;;8.30;84.30;;;;;;5031985;28;20021;-77
2022/10/04 01:20:48;;;;;;;8.10;4.15;;;8.20;84.30;;;;;;5015305;28;20120;-78
2022/10/04 01:23:45;;;;;;;7.95;4.40;;;8.20;84.30;;;;;;5031786;28;20470;-78
2022/10/04 01:26:30;;;;;;;11.13;4.32;;;8.20;84.30;;;;;;5015442;28;20033;-77
2022/10/04 01:28:58;;;;;;;10.05;4.90;;;8.10;84.60;;;;;;5015267;28;20673;-77
2022/10/04 01:31:32;;;;;;;9.05;4.10;;;8.10;84.50;;;;;;5031766;28;20021;-78
2022/10/04 01:33:59;;;;;;;9.60;4.63;;;8.00;84.30;;;;;;5031554;28;20501;-78
2022/10/04 01:36:26;;;;;;;10.15;4.72;;;8.00;84.70;;;;;;5031620;28;20033;-78
2022/10/04 01:38:53;;;;;;;8.30;4.70;;;8.00;84.90;;;;;;5031408;28;20026;-77
2022/10/04 01:41:43;;;;;;;10.38;4.50;;;8.00;85.00;;;;;;5031399;28;20473;-77
2022/10/04 01:44:20;;;;;;;11.75;5.00;;;8.00;84.90;;;;;;5015311;28;20029;-77
2022/10/04 01:46:46;;;;;;;11.60;4.90;;;7.90;84.90;;;;;;5031535;28;20099;-78
2022/10/04 01:49:17;;;;;;;9.95;5.10;;;7.90;85.10;;;;;;5031529;28;20026;-78
2022/10/04 01:51:52;;;;;;;8.80;4.25;;;7.90;86.00;;;;;;5014839;28;20076;-78
2022/10/04 01:54:22;;;;;;;7.78;4.20;;;7.90;85.10;;;;;;5015036;28;20040;-78
2022/10/04 01:56:55;;;;;;;8.15;4.22;;;8.00;86.00;;;;;;5031428;28;20032;-79
2022/10/04 01:59:30;;;;;;;9.95;4.30;;;7.90;85.20;;;;;;5031246;28;20032;-79
2022/10/04 02:02:09;;;;;;;6.90;4.35;;;8.00;85.10;;;;;;5031566;28;20116;-80
2022/10/04 02:04:37;;;;;;;9.73;3.80;;;7.90;85.40;;;;;;5031236;28;20052;-80
2022/10/04 02:07:11;;;;;;;10.27;3.63;;;7.80;85.60;;;;;;5031298;28;20030;-80
2022/10/04 02:09:42;;;;;;;7.57;3.67;;;7.80;85.70;;;;;;5014623;28;20385;-81
2022/10/04 02:12:09;;;;;;;12.32;3.70;;;7.90;85.60;;;;;;5031767;28;20037;-80
2022/10/04 02:14:41;;;;;;;11.77;3.97;;;7.80;85.60;;;;;;5032206;28;20482;-80
2022/10/04 02:17:12;;;;;;;8.65;3.80;;;7.80;85.60;;;;;;5034417;28;20049;-79
2022/10/04 02:19:40;;;;;;;12.60;3.60;;;7.80;85.60;;;;;;5034854;28;20033;-79
2022/10/04 02:22:12;;;;;;;15.88;4.05;;;7.80;85.40;;;;;;5034462;28;20112;-79
2022/10/04 02:24:45;;;;;;;13.55;3.90;;;7.80;85.50;;;;;;5018301;28;20051;-79
2022/10/04 02:27:12;;;;;;;10.15;3.58;;;7.80;85.20;;;;;;5035921;28;20041;-80
2022/10/04 02:29:38;;;;;;;10.65;4.07;;;7.80;85.00;;;;;;5034732;28;20113;-77
2022/10/04 02:34:53;;;;;;;10.57;3.80;;;7.90;84.90;;;;;;5036226;28;20140;-79
2022/10/04 02:37:22;;;;;;;7.70;3.70;;;7.90;84.90;;;;;;5016821;28;20508;-79
2022/10/04 02:39:51;;;;;;;8.13;3.50;;;7.90;84.80;;;;;;5034831;28;20395;-79
2022/10/04 02:42:38;;;;;;;12.95;4.10;;;7.80;84.80;;;;;;5018079;28;20017;-78
2022/10/04 02:45:08;;;;;;;9.48;3.70;;;7.80;84.80;;;;;;5017963;28;20049;-78
2022/10/04 02:48:01;;;;;;;7.25;3.65;;;7.80;84.70;;;;;;5034789;28;20065;-78
2022/10/04 02:50:35;;;;;;;9.90;4.05;;;7.80;84.60;;;;;;5018534;28;20017;-78
2022/10/04 02:53:20;;;;;;;12.40;3.30;;;7.80;84.70;;;;;;5035173;28;20087;-78
2022/10/04 02:55:47;;;;;;;8.82;3.22;;;7.80;84.70;;;;;;5034337;28;20017;-79
2022/10/04 02:58:17;;;;;;;9.10;2.88;;;7.80;84.40;;;;;;5034805;28;20429;-79
2022/10/04 03:00:53;;;;;;;12.45;3.70;;;7.90;84.70;;;;;;5038766;28;20116;-79
2022/10/04 03:03:44;;;;;;;6.97;2.95;;;7.90;84.40;;;;;;5035504;28;20132;-78
2022/10/04 03:06:18;;;;;;;10.15;3.53;;;7.90;84.30;;;;;;5037846;28;20018;-78
2022/10/04 03:08:53;;;;;;;9.73;3.90;;;7.90;84.20;;;;;;5043473;28;20516;-80
2022/10/04 03:11:23;;;;;;;9.40;3.05;;;7.80;84.30;;;;;;5033996;28;20092;-79
2022/10/04 03:13:53;;;;;;;7.85;3.20;;;7.80;84.20;;;;;;5033670;28;20041;-78
2022/10/04 03:16:19;;;;;;;6.43;2.90;;;7.80;84.30;;;;;;5033561;28;20073;-79
2022/10/04 03:18:47;;;;;;;6.68;2.83;;;7.80;84.40;;;;;;5033728;28;20033;-79
2022/10/04 03:21:16;;;;;;;7.90;3.00;;;7.80;84.30;;;;;;5033690;28;20478;-78
2022/10/04 03:23:42;;;;;;;7.63;3.00;;;7.80;84.30;;;;;;5033664;28;20433;-79
2022/10/04 03:26:39;;;;;;;5.93;2.80;;;7.80;84.40;;;;;;5033696;28;20030;-78
2022/10/04 03:29:10;;;;;;;7.05;3.28;;;7.90;84.30;;;;;;5033497;28;20032;-79
2022/10/04 03:31:40;;;;;;;8.20;2.78;;;8.00;83.90;;;;;;5033452;28;20032;-78
2022/10/04 03:34:13;;;;;;;5.90;3.10;;;8.00;84.70;;;;;;5033422;28;20040;-78
2022/10/04 03:36:39;;;;;;;3.88;2.83;;;8.00;83.90;;;;;;5033463;28;20053;-78
2022/10/04 03:39:08;;;;;;;8.63;3.50;;;8.00;83.90;;;;;;5033313;28;20485;-78
2022/10/04 03:41:38;;;;;;;9.43;3.10;;;8.00;83.60;;;;;;5033142;28;20480;-78
2022/10/04 03:44:13;;;;;;;12.65;3.60;;;7.90;83.80;;;;;;5033029;28;20033;-78
2022/10/04 03:46:39;;;;;;;7.95;3.35;;;7.90;84.00;;;;;;5032914;28;20394;-78
2022/10/04 03:49:11;;;;;;;7.20;2.95;;;7.90;84.30;;;;;;5033185;28;20030;-79
2022/10/04 03:51:43;;;;;;;9.35;3.10;;;8.00;84.20;;;;;;5033040;28;20494;-79
2022/10/04 03:54:15;;;;;;;8.32;3.17;;;8.00;83.90;;;;;;5032872;28;20030;-79
2022/10/04 03:56:40;;;;;;;9.55;3.33;;;8.10;84.10;;;;;;5033034;28;20108;-78
2022/10/04 03:59:06;;;;;;;9.02;2.67;;;8.10;83.90;;;;;;5032943;28;20121;-78
2022/10/04 04:01:39;;;;;;;7.57;3.00;;;8.10;83.80;;;;;;5033947;28;20407;-78
2022/10/04 04:04:32;;;;;;;6.28;2.63;;;8.10;83.50;;;;;;5032513;28;20116;-79
2022/10/04 04:07:18;;;;;;;8.35;3.30;;;8.10;83.50;;;;;;5015846;28;20030;-78
2022/10/04 04:09:46;;;;;;;;;;;8.10;82.90;;;;;;5033128;28;20025;-78
2022/10/04 04:12:46;;;;;;;11.82;3.35;;;8.00;82.50;;;;;;5016022;28;19905;-79
2022/10/04 04:15:13;;;;;;;8.60;3.53;;;8.00;82.90;;;;;;5015349;28;20060;-79
2022/10/04 04:17:44;;;;;;;12.07;4.07;;;8.00;83.00;;;;;;5015372;28;20032;-79
2022/10/04 04:20:27;;;;;;;12.32;4.43;;;7.90;83.80;;;;;;5015734;28;20025;-81
2022/10/04 04:23:03;;;;;;;8.70;3.10;;;7.80;83.20;;;;;;5015956;28;20105;-80
2022/10/04 04:25:33;;;;;;;8.65;3.40;;;7.80;83.40;;;;;;5016069;28;20021;-80
2022/10/04 04:28:12;;;;;;;5.82;3.08;;;7.80;83.60;;;;;;5015617;28;20032;-80
2022/10/04 04:30:43;;;;;;;6.90;3.67;;;7.90;83.60;;;;;;5016088;28;20477;-80
2022/10/04 04:33:24;;;;;;;7.53;3.78;;;8.00;83.30;;;;;;5015996;28;20036;-81
2022/10/04 04:35:54;;;;;;;6.63;3.20;;;7.90;83.30;;;;;;5016056;28;20025;-80
2022/10/04 04:38:24;;;;;;;7.60;3.88;;;8.00;83.40;;;;;;5015252;28;20021;-81
2022/10/04 04:40:56;;;;;;;10.32;3.95;;;8.10;83.40;;;;;;5031814;28;20481;-81
2022/10/04 04:43:25;;;;;;;8.38;3.60;;;8.00;82.70;;;;;;5015901;28;20036;-80
2022/10/04 04:45:51;;;;;;;7.53;4.47;;;8.00;82.40;;;;;;5015686;28;20021;-79
2022/10/04 04:48:18;;;;;;;7.80;3.83;;;8.00;82.00;;;;;;5015600;28;20036;-79
2022/10/04 04:50:52;;;;;;;8.23;4.05;;;8.00;82.30;;;;;;5031907;28;20113;-80
2022/10/04 04:53:27;;;;;;;12.23;4.40;;;7.90;81.60;;;;;;5033039;28;20056;-80
2022/10/04 04:55:59;;;;;;;5.75;2.78;;;7.90;82.00;;;;;;5015778;28;20056;-80
2022/10/04 04:58:46;;;;;;;12.43;6.35;;;7.90;81.90;;;;;;5015189;28;20025;-80
2022/10/04 05:01:20;;;;;;;8.48;5.85;;;7.80;81.60;;;;;;5012002;28;20482;-80
2022/10/04 05:04:18;;;;;;;10.02;5.13;;;7.70;82.20;;;;;;5015472;28;20128;-80
2022/10/04 05:07:05;;;;;;;12.02;5.50;;;7.60;83.80;;;;;;5014945;28;20034;-80
2022/10/04 05:09:37;;;;;;;9.27;5.38;;;7.40;84.40;;;;;;5014500;28;20056;-80
2022/10/04 05:12:09;;;;;;;11.85;5.78;;;7.40;84.30;;;;;;5014845;28;20072;-80
2022/10/04 05:14:44;;;;;;;10.60;4.88;;;7.50;85.30;;;;;;5014906;28;20086;-80
2022/10/04 05:17:19;;;;;;;20.60;5.10;;;7.50;84.90;;;;;;5014787;28;20108;-80
2022/10/04 05:19:45;;;;;;;11.93;5.07;;;7.50;85.00;;;;;;5015347;28;20030;-80
2022/10/04 05:22:13;;;;;;;14.20;5.18;;;7.50;85.60;;;;;;5032633;28;20025;-80
2022/10/04 05:24:47;;;;;;;9.60;4.45;;;7.60;85.40;;;;;;5014359;28;20026;-80
2022/10/04 05:27:36;;;;;;;7.50;4.20;;;7.60;85.00;;;;;;5014797;28;20026;-80
2022/10/04 05:30:21;;;;;;;7.93;4.13;;;7.70;84.80;;;;;;5032706;28;20101;-81
2022/10/04 05:33:05;;;;;;;7.97;4.65;;;7.60;84.10;;;;;;5032205;28;20033;-80
2022/10/04 05:36:00;;;;;;;9.32;4.82;;;7.70;84.00;;;;;;4998385;28;20064;-80
2022/10/04 05:38:43;;;;;;;13.98;6.88;;;7.70;83.40;;;;;;5011360;28;20041;-80
2022/10/04 05:41:31;;;;;;;14.98;7.50;;;7.70;82.60;;;;;;5014478;28;20040;-79
2022/10/04 05:43:57;;;;;;;9.88;6.55;;;7.70;82.50;;;;;;5014687;28;20056;-81
2022/10/04 05:46:36;;;;;;;13.52;6.40;;;7.70;82.20;;;;;;5014236;28;20053;-80
2022/10/04 05:49:16;;;;;;;12.18;6.07;;;7.80;81.60;;;;;;5011871;28;20030;-80
2022/10/04 05:51:48;;;;;;;10.98;5.82;;;7.80;81.30;;;;;;5017552;28;20033;-80
2022/10/04 05:54:21;;;;;;;15.90;8.02;;;7.80;81.60;;;;;;5018103;28;20037;-80
2022/10/04 05:57:20;;;;;;;28.23;11.98;;;7.80;81.70;;;;;;5018514;28;20029;-80
2022/10/04 06:00:21;;;;;;;19.00;8.07;;;7.80;82.00;;;;;;5018503;28;20470;-79
2022/10/04 06:03:27;;;;;;;16.67;6.85;;;7.80;82.00;;;;;;4990892;28;20045;-80
2022/10/04 06:06:13;;;;;;;8.90;5.00;;;7.90;82.40;;;;;;5017142;28;20025;-80
2022/10/04 06:08:58;;;;;;;10.77;4.93;;;7.90;82.10;;;;;;5017810;28;20386;-80
2022/10/04 06:11:54;;;;;;;8.05;4.22;;;8.00;82.10;;;;;;5018120;28;20025;-80
2022/10/04 06:14:39;;;;;;;13.88;5.20;;;8.00;82.70;;;;;;5035778;28;20091;-80
2022/10/04 06:17:11;;;;;;;12.80;4.70;;;8.10;83.50;;;;;;5018025;28;20092;-81
2022/10/04 06:20:18;;;;;;;16.52;6.18;;;8.10;82.50;;;;;;5018069;28;20362;-81
2022/10/04 06:22:48;;;;;;;11.00;6.13;;;8.20;82.40;;;;;;5009187;28;20033;-81
2022/10/04 06:25:38;;;;;;;12.70;6.57;;;8.30;82.30;;;;;;5017683;28;20037;-80
2022/10/04 06:28:32;;;;;;;13.57;5.35;;;8.30;82.20;;;;;;4998379;28;20402;-80
2022/10/04 06:31:24;;;;;;;8.75;4.90;;;8.40;82.20;;;;;;5008196;28;20120;-80
2022/10/04 06:34:35;;;;;;;15.27;5.65;;;8.40;82.20;;;;;;5017797;28;20037;-80
2022/10/04 06:37:24;;;;;;;11.10;5.40;;;8.50;82.40;;;;;;5017715;28;20032;-82
2022/10/04 06:40:20;;;;;;;13.68;5.25;;;8.50;82.20;;;;;;5017122;28;20552;-80
2022/10/04 06:43:07;;;;;;;10.18;5.35;;;8.60;82.30;;;;;;5017318;28;20033;-82
2022/10/04 06:45:44;;;;;;;12.23;5.35;;;8.70;82.40;;;;;;5017242;28;20393;-80
2022/10/04 06:48:39;;;;;;;11.10;5.15;;;8.80;82.20;;;;;;5017780;28;20025;-81
2022/10/04 06:51:12;;;;;;;6.57;3.90;;;8.80;81.70;;;;;;5032480;28;20025;-81
2022/10/04 06:54:02;;;;;;;;;;;8.90;81.20;;;;;;5035390;28;20076;-81
2022/10/04 06:56:57;;;;;;;9.38;5.53;;;8.90;81.20;;;;;;5034972;28;20082;-80
2022/10/04 06:59:49;;;;;;;13.10;5.40;;;8.90;81.50;;;;;;5012863;28;20116;-80
2022/10/04 07:02:25;;;;;;;15.27;6.18;;;9.00;81.80;;;;;;4995431;28;20041;-79
2022/10/04 07:04:59;;;;;;;10.05;5.63;;;9.10;81.20;;;;;;4996231;28;20026;-78
2022/10/04 07:08:05;;;;;;;8.68;5.07;;;9.30;81.30;;;;;;4980472;28;20544;-80
2022/10/04 07:10:55;;;;;;;16.60;6.45;;;9.50;80.80;;;;;;5012818;28;20026;-79
2022/10/04 07:13:26;;;;;;;14.32;6.47;;;9.60;79.20;;;;;;4995954;28;20049;-80
2022/10/04 07:16:24;;;;;;;13.23;5.53;;;9.30;77.00;;;;;;4995908;28;20038;-79
2022/10/04 07:19:03;;;;;;;12.20;6.50;;;9.20;78.10;;;;;;4996070;28;20042;-77
2022/10/04 07:21:38;;;;;;;12.10;7.53;;;9.20;79.10;;;;;;4996232;28;20022;-79
2022/10/04 07:24:11;;;;;;;28.10;9.30;;;9.30;82.10;;;;;;4995919;28;20514;-79
2022/10/04 07:26:48;;;;;;;11.93;6.50;;;9.40;85.50;;;;;;4996026;28;20022;-77
2022/10/04 07:29:36;;;;;;;8.27;5.50;;;9.70;82.90;;;;;;4996176;28;20025;-77
2022/10/04 07:32:07;;;;;;;12.75;6.38;;;9.80;80.30;;;;;;5029940;28;20022;-76
2022/10/04 07:34:48;;;;;;;9.73;5.05;;;10.10;81.20;;;;;;4996775;28;20061;-76
2022/10/04 07:37:14;;;;;;;11.75;5.68;;;10.40;79.70;;;;;;4996894;28;20084;-78
2022/10/04 07:40:25;;;;;;;8.25;4.90;;;10.70;78.40;;;;;;5029287;28;20466;-76
2022/10/04 07:42:58;;;;;;;10.98;5.05;;;11.00;77.90;;;;;;4981023;28;20148;-76
2022/10/04 07:45:26;;;;;;;10.02;4.75;;;11.20;76.10;;;;;;5029523;28;20037;-76
2022/10/04 07:48:12;;;;;;;12.15;4.55;;;11.30;75.90;;;;;;5029622;28;20033;-76
2022/10/04 07:50:58;;;;;;;10.40;4.35;;;11.60;75.80;;;;;;5028968;28;20051;-76
2022/10/04 07:53:39;;;;;;;8.55;4.50;;;12.00;74.70;;;;;;4992630;28;20038;-76
2022/10/04 07:56:19;;;;;;;10.43;5.03;;;12.20;74.00;;;;;;5029223;28;20481;-76
2022/10/04 07:59:06;;;;;;;8.32;5.25;;;12.30;72.40;;;;;;4996177;28;20030;-76
2022/10/04 08:02:01;;;;;;;11.50;4.88;;;12.50;72.70;;;;;;5029139;28;20535;-76
2022/10/04 08:04:49;;;;;;;12.43;5.47;;;12.60;71.70;;;;;;5029239;28;20022;-77
2022/10/04 08:07:23;;;;;;;12.85;7.03;;;12.80;71.40;;;;;;4996344;28;20061;-77
2022/10/04 08:10:05;;;;;;;12.80;6.40;;;12.80;71.10;;;;;;5028836;28;20438;-77
2022/10/04 08:12:50;;;;;;;11.27;6.22;;;12.80;70.90;;;;;;4995842;28;20030;-77
2022/10/04 08:15:26;;;;;;;12.67;5.73;;;12.90;70.80;;;;;;4999864;28;20555;-77
2022/10/04 08:18:29;;;;;;;7.93;5.38;;;12.90;71.20;;;;;;5015625;28;20275;-77
2022/10/04 08:20:56;;;;;;;13.55;6.32;;;13.00;71.40;;;;;;5016036;28;20076;-77
2022/10/04 08:23:48;;;;;;;12.13;6.68;;;13.20;71.30;;;;;;5015591;28;20033;-81
2022/10/04 08:26:36;;;;;;;15.30;6.63;;;13.30;71.40;;;;;;5015529;28;20030;-79
2022/10/04 08:32:12;;;;;;;12.35;6.05;;;13.20;71.20;;;;;;5032794;28;20036;-78
2022/10/04 08:34:56;;;;;;;10.63;5.70;;;13.20;71.50;;;;;;5015112;28;20120;-78
2022/10/04 08:37:27;;;;;;;8.98;6.05;;;13.10;72.50;;;;;;5015203;28;20026;-79
2022/10/04 08:40:11;;;;;;;11.00;6.65;;;13.10;72.90;;;;;;5015080;28;20026;-80
2022/10/04 08:43:01;;;;;;;9.10;5.90;;;13.10;73.60;;;;;;5015169;28;20017;-79
2022/10/04 08:45:37;;;;;;;11.48;6.63;;;13.30;74.20;;;;;;5032197;28;20044;-79
2022/10/04 08:48:23;;;;;;;12.00;6.40;;;13.50;74.30;;;;;;5014999;28;20108;-79
2022/10/04 08:51:07;;;;;;;9.40;5.70;;;13.80;73.80;;;;;;5015183;28;20068;-79
2022/10/04 08:53:45;;;;;;;11.73;5.38;;;14.10;73.10;;;;;;5014974;28;20030;-79
2022/10/04 08:56:49;;;;;;;12.07;6.78;;;14.30;71.80;;;;;;5014735;28;20052;-79
2022/10/04 08:59:31;;;;;;;14.43;6.78;;;14.40;71.00;;;;;;5015039;28;20021;-79
2022/10/04 09:02:22;;;;;;;10.43;5.50;;;14.30;70.80;;;;;;5015011;28;20028;-78
2022/10/04 09:05:20;;;;;;;14.13;5.53;;;14.40;72.20;;;;;;5014412;28;20025;-77
2022/10/04 09:08:24;;;;;;;9.55;5.20;;;14.50;71.80;;;;;;5015055;28;20355;-77
2022/10/04 09:11:41;;;;;;;9.32;5.03;;;14.60;71.20;;;;;;5014892;28;20026;-77
2022/10/04 09:14:19;;;;;;;20.40;9.07;;;14.80;72.00;;;;;;5004105;28;20037;-76
2022/10/04 09:16:47;;;;;;;23.58;12.68;;;14.90;70.40;;;;;;5014292;28;20065;-76
2022/10/04 09:19:45;;;;;;;17.50;7.90;;;14.60;71.70;;;;;;5014519;28;20040;-76
2022/10/04 09:22:31;;;;;;;13.18;5.40;;;14.50;71.60;;;;;;5032688;28;20072;-74
2022/10/04 09:25:15;;;;;;;10.73;5.60;;;14.80;71.60;;;;;;5014827;28;20084;-75
2022/10/04 09:28:02;;;;;;;10.32;4.88;;;15.00;70.30;;;;;;5018577;28;20086;-76
2022/10/04 09:30:46;;;;;;;8.57;4.30;;;15.30;69.80;;;;;;5018470;28;20028;-77
2022/10/04 09:33:14;;;;;;;11.00;5.15;;;15.50;68.80;;;;;;5018600;28;20420;-77
2022/10/04 09:35:55;;;;;;;9.35;4.85;;;15.70;68.70;;;;;;5018557;28;20470;-77
2022/10/04 09:38:55;;;;;;;8.80;5.30;;;15.90;67.40;;;;;;5018400;28;20045;-77
2022/10/04 09:41:33;;;;;;;9.75;5.03;;;15.90;67.40;;;;;;5018077;28;20029;-78
2022/10/04 09:44:05;;;;;;;6.70;3.65;;;16.00;67.20;;;;;;5017980;28;20103;-78
2022/10/04 09:47:01;;;;;;;8.25;5.38;;;16.30;66.80;;;;;;5018245;28;20049;-78
2022/10/04 09:49:44;;;;;;;9.00;5.30;;;16.50;65.60;;;;;;5018431;28;20079;-78
2022/10/04 09:52:29;;;;;;;5.65;4.32;;;16.70;65.20;;;;;;5018346;28;20167;-78
2022/10/04 09:55:17;;;;;;;7.95;3.90;;;16.90;65.10;;;;;;5018180;28;20037;-78
2022/10/04 09:58:02;;;;;;;8.25;4.32;;;17.20;65.60;;;;;;5007841;28;20033;-78
2022/10/04 10:00:48;;;;;;;6.78;3.88;;;17.60;64.20;;;;;;5018081;28;20029;-78
2022/10/04 10:03:41;;;;;;;5.88;3.38;;;18.00;63.80;;;;;;5017611;28;20025;-77
2022/10/04 10:06:40;;;;;;;8.95;3.97;;;18.40;62.20;;;;;;5018065;28;20116;-77
2022/10/04 10:09:10;;;;;;;6.85;2.55;;;18.60;60.10;;;;;;5017677;28;20026;-78
2022/10/04 10:14:34;;;;;;;7.00;3.47;;;18.80;58.10;;;;;;5035466;28;20041;-77
2022/10/04 10:16:59;;;;;;;5.95;3.40;;;18.80;58.60;;;;;;5017432;28;20514;-78
2022/10/04 10:19:40;;;;;;;5.88;3.25;;;18.90;57.80;;;;;;5017788;28;20049;-79
2022/10/04 10:22:37;;;;;;;5.35;2.97;;;18.80;58.30;;;;;;5017670;28;20036;-78
2022/10/04 10:25:47;;;;;;;9.55;3.70;;;18.90;58.40;;;;;;5017357;28;20102;-78
2022/10/04 10:28:51;;;;;;;7.40;3.67;;;19.10;58.20;;;;;;5014620;28;20056;-78
2022/10/04 10:31:36;;;;;;;6.30;2.90;;;19.10;58.80;;;;;;5017724;28;20075;-78
2022/10/04 10:34:24;;;;;;;;;;;19.10;60.10;;;;;;5017394;28;20406;-78
2022/10/04 10:37:29;;;;;;;4.85;2.83;;;19.20;59.80;;;;;;5017735;28;19959;-79
2022/10/04 10:40:21;;;;;;;6.80;3.20;;;19.50;58.30;;;;;;5007554;28;20055;-77
2022/10/04 10:42:49;;;;;;;5.18;3.08;;;19.60;57.70;;;;;;5017165;28;20024;-78
2022/10/04 10:45:47;;;;;;;5.63;3.15;;;19.70;58.00;;;;;;5017231;28;20532;-78
2022/10/04 10:48:30;;;;;;;6.28;3.08;;;19.60;58.10;;;;;;5016986;28;20029;-77
2022/10/04 10:51:33;;;;;;;5.80;3.05;;;19.30;58.40;;;;;;5015992;28;20125;-79
2022/10/04 10:54:28;;;;;;;5.40;3.28;;;19.20;59.60;;;;;;5015824;28;20033;-77
2022/10/04 10:57:04;;;;;;;4.72;2.75;;;19.40;58.60;;;;;;5034219;28;20030;-78
2022/10/04 10:59:58;;;;;;;3.40;2.83;;;19.80;56.90;;;;;;5016106;28;20025;-78
2022/10/04 11:02:43;;;;;;;6.88;2.90;;;19.50;56.60;;;;;;5015886;28;20076;-78
2022/10/04 11:05:41;;;;;;;5.18;2.65;;;19.50;56.50;;;;;;5015783;28;20060;-78
2022/10/04 11:08:29;;;;;;;8.55;2.60;;;19.70;55.60;;;;;;5016272;28;20022;-77
2022/10/04 11:11:33;;;;;;;5.03;2.40;;;20.00;54.70;;;;;;5016639;28;20540;-79
2022/10/04 11:14:17;;;;;;;5.20;2.15;;;20.50;52.60;;;;;;5015988;28;20477;-78
2022/10/04 11:17:08;;;;;;;4.30;2.10;;;21.00;52.10;;;;;;5016088;28;20486;-78
2022/10/04 11:20:12;;;;;;;3.85;1.85;;;21.30;50.70;;;;;;5016049;28;20033;-79
2022/10/04 11:23:07;;;;;;;3.53;2.25;;;21.70;49.20;;;;;;5033934;28;20030;-78
2022/10/04 11:26:11;;;;;;;7.40;2.50;;;22.10;48.10;;;;;;5016297;28;20061;-80
2022/10/04 11:28:46;;;;;;;6.18;2.22;;;22.50;47.20;;;;;;5016073;28;20026;-79
2022/10/04 11:31:40;;;;;;;5.43;2.58;;;22.80;45.20;;;;;;5032472;28;20044;-79
2022/10/04 11:34:50;;;;;;;4.22;2.03;;;23.00;43.70;;;;;;5015757;28;20045;-79
2022/10/04 11:37:37;;;;;;;2.85;2.00;;;23.10;41.40;;;;;;5015805;28;20071;-79
2022/10/04 11:40:30;;;;;;;4.93;1.70;;;23.00;42.90;;;;;;5015760;28;20441;-79
2022/10/04 11:43:34;;;;;;;2.85;1.55;;;23.10;42.70;;;;;;5015826;28;20033;-78
2022/10/04 11:46:23;;;;;;;2.78;1.38;;;23.20;41.10;;;;;;5015854;28;20500;-79
2022/10/04 11:49:04;;;;;;;1.17;0.60;;;23.50;40.80;;;;;;5015386;28;20037;-78
2022/10/04 11:51:35;;;;;;;4.13;0.63;;;23.50;33.60;;;;;;5015990;28;20355;-78
2022/10/04 11:54:29;;;;;;;0.68;0.55;;;23.60;35.40;;;;;;5015688;28;20400;-80
2022/10/04 11:57:11;;;;;;;1.00;0.55;;;23.80;32.90;;;;;;5015791;28;20030;-78
2022/10/04 11:59:48;;;;;;;0.30;0.30;;;23.70;32.20;;;;;;5016202;28;20030;-78
2022/10/04 12:02:39;;;;;;;0.47;0.47;;;23.50;32.40;;;;;;5016307;28;20361;-78
2022/10/04 12:05:07;;;;;;;1.55;0.40;;;23.60;30.60;;;;;;5016194;28;20036;-78
2022/10/04 12:08:02;;;;;;;0.57;0.40;;;23.80;31.50;;;;;;5015935;28;20021;-78
2022/10/04 12:10:35;;;;;;;2.50;0.40;;;24.00;31.70;;;;;;5001133;28;20025;-79
2022/10/04 12:13:37;;;;;;;1.92;1.40;;;24.00;28.90;;;;;;5015677;28;20026;-78
2022/10/04 12:16:29;;;;;;;1.63;0.68;;;24.00;31.00;;;;;;5011981;28;20505;-78
2022/10/04 12:19:12;;;;;;;0.63;0.40;;;24.10;30.40;;;;;;4996265;28;20041;-80
2022/10/04 12:22:11;;;;;;;1.27;0.57;;;23.80;30.50;;;;;;4996307;28;20045;-80
2022/10/04 12:25:25;;;;;;;0.68;0.30;;;23.80;30.00;;;;;;5013539;28;20026;-78
2022/10/04 12:27:58;;;;;;;1.48;0.75;;;23.90;29.80;;;;;;4996075;28;20030;-78
2022/10/04 12:30:30;;;;;;;1.83;0.88;;;23.90;31.00;;;;;;4995731;28;20121;-78
2022/10/04 12:33:13;;;;;;;0.80;0.73;;;24.20;31.70;;;;;;4995674;28;20056;-78
2022/10/04 12:35:50;;;;;;;3.60;1.60;;;24.60;31.60;;;;;;4995664;28;20026;-78
2022/10/04 12:38:57;;;;;;;0.65;0.50;;;24.90;30.90;;;;;;4995912;28;20052;-78
2022/10/04 12:41:40;;;;;;;4.28;0.90;;;25.10;29.00;;;;;;4995683;28;20116;-78
2022/10/04 12:44:28;;;;;;;1.08;0.45;;;25.10;29.80;;;;;;4995998;28;20037;-78
2022/10/04 12:47:23;;;;;;;2.20;0.55;;;24.70;27.50;;;;;;4995932;28;20132;-78
2022/10/04 12:50:09;;;;;;;0.77;0.50;;;24.60;28.80;;;;;;4995202;28;20422;-77
2022/10/04 12:52:52;;;;;;;1.10;0.50;;;24.40;29.60;;;;;;4995154;28;20014;-77
2022/10/04 12:55:55;;;;;;;0.80;0.80;;;24.30;28.40;;;;;;4995512;28;20045;-77
2022/10/04 12:58:42;;;;;;;2.30;0.60;;;24.20;29.90;;;;;;5012796;28;20489;-78
2022/10/04 13:01:26;;;;;;;;;;;24.20;30.00;;;;;;4994811;28;20033;-77
2022/10/04 13:04:42;;;;;;;1.50;0.95;;;24.20;29.50;;;;;;4995346;28;20004;-78
2022/10/04 13:07:36;;;;;;;0.82;0.70;;;24.20;30.60;;;;;;4986406;28;20076;-78
2022/10/04 13:10:30;;;;;;;1.48;0.60;;;24.30;29.60;;;;;;4995499;28;20568;-78
2022/10/04 13:13:35;;;;;;;1.63;1.10;;;24.70;31.30;;;;;;4995074;28;20047;-78
2022/10/04 13:16:42;;;;;;;3.20;0.90;;;24.70;27.80;;;;;;4998572;28;20042;-77
2022/10/04 13:19:26;;;;;;;1.77;1.13;;;24.80;28.30;;;;;;4974535;28;20037;-77
2022/10/04 13:22:09;;;;;;;1.55;1.00;;;24.80;28.50;;;;;;4974134;28;20132;-77
2022/10/04 13:24:59;;;;;;;3.45;1.67;;;24.90;28.30;;;;;;5002151;28;20041;-78
2022/10/04 13:27:37;;;;;;;1.85;0.80;;;25.00;29.40;;;;;;5014745;28;20025;-78
2022/10/04 13:30:26;;;;;;;1.33;0.95;;;25.40;28.70;;;;;;5030642;28;20025;-79
2022/10/04 13:33:12;;;;;;;3.17;1.02;;;25.60;28.10;;;;;;5013975;28;20120;-78
2022/10/04 13:36:05;;;;;;;0.90;0.60;;;25.80;27.80;;;;;;5013940;28;20082;-77
2022/10/04 13:38:50;;;;;;;3.60;0.77;;;26.10;28.30;;;;;;5032128;28;20025;-78
2022/10/04 13:42:05;;;;;;;1.08;0.80;;;26.40;26.00;;;;;;5014454;28;20028;-77
2022/10/04 13:45:01;;;;;;;0.95;0.60;;;26.30;26.90;;;;;;4972379;28;20030;-77
2022/10/04 13:48:00;;;;;;;1.25;0.68;;;26.40;26.10;;;;;;4973754;28;20035;-77
2022/10/04 13:50:37;;;;;;;2.25;0.73;;;26.40;25.60;;;;;;4974117;28;20458;-79
2022/10/04 13:56:56;;;;;;;2.05;0.90;;;26.60;25.80;;;;;;4991178;28;20185;-77
2022/10/04 13:59:51;;;;;;;1.27;0.68;;;26.70;26.30;;;;;;4974182;28;20030;-78
2022/10/04 14:02:50;;;;;;;1.92;0.85;;;26.80;25.80;;;;;;4990483;28;20026;-78
2022/10/04 14:05:34;;;;;;;2.03;0.70;;;27.00;26.90;;;;;;4973891;28;20125;-81
2022/10/04 14:08:16;;;;;;;1.25;0.60;;;26.80;25.50;;;;;;4989949;28;20031;-81
2022/10/04 14:11:00;;;;;;;1.63;0.82;;;26.80;26.50;;;;;;4990297;28;20030;-79
2022/10/04 14:13:44;;;;;;;3.70;0.70;;;26.80;26.60;;;;;;4988318;28;20030;-82
2022/10/04 14:16:25;;;;;;;1.48;0.95;;;26.90;26.50;;;;;;5012164;28;20504;-82
2022/10/04 14:18:53;;;;;;;1.45;0.82;;;26.90;26.00;;;;;;5017954;28;20057;-82
2022/10/04 14:21:47;;;;;;;1.63;0.55;;;26.80;25.40;;;;;;5018056;28;20439;-83